X  Tanca Dades meteorològiques de l'aviació METAR     EDVE Braunschweig-Wolfsburg Airport
Temperatura
15°C Temperatura
6°C Rosada
55% Humitat



Vent
10 KM/H
6 MPH
3 M/S
5 NUS



80°
Est
Condicions actuals

Sense núvols Sense núvols
Pressió 1021.92 (hPa) - 30.18 (inHg)
Visibilitat 6.2 (milla) - 10 (km)
Aeroport
Codi aeroport EDVE

Ubicació: Braunschweig-Wolfsburg Airport
Distància: 35 (km)

Metar:
EDVE 201350Z 08005KT 010V160 CAVOK 15/06 Q1022

Temps: 20-09-2021 15:50 CEST